الصفحة الرئيسية
METAR-TAF:

METAR-TAF

مطار :

Forrest, أستراليا

دائرة عرض: 30-50-18S, خط طول: 128-06-54E, ارتفاع: 156 متر

مراقبة الطقس الحالي

تاريخ ووقت الإصدار 25 دقيقة قبل الساعة 21:00UTC
ريح 4 عقدة من الشرق
درجة الحرارة 9°درجة مئوية
الرطوبة 93%
ضغط 1027 hPa

METAR: YFRT 172100Z AUTO 08004KT //// // NCD 09/08 Q1027

زمن: 05:25 (21:25 UTC)

توقعات

تاريخ ووقت الإصدار 3ساعات و 20 دقيقة قبل الساعة 18:05UTC
التوقعات صالحة من17 الساعة 20 UTC إلى 18 الساعة 08 UTC
ريح 10 عقدة من الشمال/الشمال الشرقي
الرؤية 10 كم أو أكثر
الغيوم لا تقل 1500 م ولا وجود لمزنة ركامية السحاب الأسود
من 18 الساعة 0400 UTC
ريح 9 عقدة من الجنوب الغربي
الرؤية 10 كم أو أكثر
الغيوم لا تقل 1500 م ولا وجود لمزنة ركامية السحاب الأسود
نظرية الاحتمالات 30%
من 17 الساعة 20 UTC إلى 17 الساعة 22 UTC
الرؤية: 0300 متر
ضباب

TAF: YFRT 171805Z 1720/1808 02010KT CAVOK FM180400 23009KT CAVOK PROB30 1720/1722 0300 FG

أرصاد الطقس والتوقعات من أكثر من 4000 مطار (تقارير الطقس للمطار METAR والتنبؤ بالطقس بالمطارTAF).

المحطات المتاحة هي النقط الصفراء والحمراء على الخريطة.

حرك المؤشر فوق النقطة لمعرفة اسم المحطة.

ثم انقر لمعرفة أرصاد وتوقعات الطقس.

لتغيير الخارطة: اضغط على الأزرار الخضراء مع رمز الصليب الأسود للتكبير. على الزر الأخضر مع شرطة للتصغير، أو على الأسهم الخضراء للخرائط المجاورة.


METAR-TAF: